Time;durP1;ratioP1;P1;durP2;ratioP2;P2;SDS_P1;SDS_P2;PMS_P1;PMS_P2;Temp;Humidity;BMP_temperature;BMP_pressure;BME280_temperature;BME280_humidity;BME280_pressure;Samples;Min_cycle;Max_cycle;Signal;HPM_P1;HPM_P2
2021/06/19 00:01:44;;;;;;;19.83;17.80;;;;;;;;;;5096813;28;20516;-71
2021/06/19 00:04:12;;;;;;;24.77;22.67;;;;;;;;;;5107196;28;20551;-71
2021/06/19 00:06:43;;;;;;;19.37;17.67;;;;;;;;;;5117363;28;20507;-71
2021/06/19 00:09:13;;;;;;;19.47;17.87;;;;;;;;;;5108167;28;20447;-71
2021/06/19 00:11:42;;;;;;;18.67;17.00;;;;;;;;;;5117764;28;20809;-71
2021/06/19 00:14:11;;;;;;;19.70;18.10;;;;;;;;;;5116558;28;20443;-71
2021/06/19 00:16:39;;;;;;;19.70;17.67;;;;;;;;;;5116972;28;20847;-71
2021/06/19 00:19:07;;;;;;;19.90;18.30;;;;;;;;;;5116796;28;20524;-71
2021/06/19 00:21:35;;;;;;;21.17;19.33;;;;;;;;;;5116450;28;20947;-71
2021/06/19 00:24:03;;;;;;;19.40;17.50;;;;;;;;;;5108954;28;20948;-72
2021/06/19 00:26:32;;;;;;;20.17;18.53;;;;;;;;;;5104812;28;20450;-71
2021/06/19 00:29:00;;;;;;;23.10;21.00;;;;;;;;;;5117881;28;20908;-71
2021/06/19 00:31:28;;;;;;;20.43;18.73;;;;;;;;;;5112072;28;20463;-71
2021/06/19 00:33:56;;;;;;;20.07;18.40;;;;;;;;;;5110223;28;20451;-71
2021/06/19 00:36:23;;;;;;;20.50;18.70;;;;;;;;;;5117442;28;20519;-71
2021/06/19 00:38:51;;;;;;;20.90;19.10;;;;;;;;;;5117260;28;20512;-71
2021/06/19 00:41:19;;;;;;;21.30;19.33;;;;;;;;;;5118236;28;20463;-71
2021/06/19 00:43:48;;;;;;;23.10;20.07;;;;;;;;;;5117525;28;20475;-71
2021/06/19 00:46:16;;;;;;;22.77;20.57;;;;;;;;;;5115873;28;20794;-71
2021/06/19 00:48:44;;;;;;;22.47;20.37;;;;;;;;;;5095940;28;20463;-71
2021/06/19 00:51:12;;;;;;;21.97;20.00;;;;;;;;;;5096721;28;20447;-71
2021/06/19 00:53:39;;;;;;;22.97;20.87;;;;;;;;;;5096931;28;20444;-71
2021/06/19 00:56:07;;;;;;;22.73;20.63;;;;;;;;;;5096408;28;20456;-71
2021/06/19 00:58:35;;;;;;;21.63;19.40;;;;;;;;;;5095879;28;20451;-71
2021/06/19 01:01:05;;;;;;;22.20;20.40;;;;;;;;;;5095087;28;20451;-71
2021/06/19 01:03:32;;;;;;;22.00;20.00;;;;;;;;;;5095990;28;20494;-71
2021/06/19 01:06:00;;;;;;;23.20;21.30;;;;;;;;;;5103052;28;20443;-71
2021/06/19 01:08:28;;;;;;;23.03;20.73;;;;;;;;;;5117059;28;20507;-71
2021/06/19 01:10:56;;;;;;;21.57;19.60;;;;;;;;;;5115715;28;20438;-71
2021/06/19 01:13:24;;;;;;;23.10;20.07;;;;;;;;;;5115800;28;20458;-71
2021/06/19 01:15:52;;;;;;;21.50;19.37;;;;;;;;;;5116097;28;20807;-71
2021/06/19 01:18:21;;;;;;;22.20;20.07;;;;;;;;;;5116092;28;20454;-70
2021/06/19 01:20:49;;;;;;;21.47;19.53;;;;;;;;;;5115513;28;20463;-70
2021/06/19 01:23:17;;;;;;;22.13;20.23;;;;;;;;;;5115249;28;20474;-69
2021/06/19 01:25:46;;;;;;;22.50;20.37;;;;;;;;;;5115770;28;20451;-69
2021/06/19 01:28:14;;;;;;;21.70;19.87;;;;;;;;;;5115421;28;20466;-69
2021/06/19 01:30:42;;;;;;;23.50;21.37;;;;;;;;;;5115853;28;20458;-71
2021/06/19 01:33:10;;;;;;;21.53;19.63;;;;;;;;;;5116833;28;20846;-71
2021/06/19 01:35:38;;;;;;;22.30;20.13;;;;;;;;;;5120674;28;20462;-71
2021/06/19 01:38:08;;;;;;;22.67;20.47;;;;;;;;;;5120126;28;20454;-71
2021/06/19 01:40:35;;;;;;;22.27;20.17;;;;;;;;;;5121095;28;20768;-71
2021/06/19 01:43:05;;;;;;;27.80;19.10;;;;;;;;;;5120662;28;20545;-71
2021/06/19 01:45:33;;;;;;;23.50;21.50;;;;;;;;;;5120326;28;20478;-70
2021/06/19 01:48:03;;;;;;;22.17;20.23;;;;;;;;;;5120676;28;20454;-70
2021/06/19 01:50:31;;;;;;;21.67;19.60;;;;;;;;;;5118524;28;20447;-71
2021/06/19 01:53:00;;;;;;;21.63;19.53;;;;;;;;;;5119488;28;20540;-71
2021/06/19 01:55:28;;;;;;;22.20;20.20;;;;;;;;;;5119374;28;20534;-71
2021/06/19 01:57:57;;;;;;;21.73;19.83;;;;;;;;;;5119492;28;20791;-71
2021/06/19 02:00:27;;;;;;;23.27;21.13;;;;;;;;;;5119784;28;20454;-71
2021/06/19 02:02:55;;;;;;;21.40;19.20;;;;;;;;;;5119498;28;20531;-71
2021/06/19 02:05:23;;;;;;;20.90;18.90;;;;;;;;;;5120317;28;20490;-71
2021/06/19 02:07:52;;;;;;;21.47;19.57;;;;;;;;;;5119787;28;20833;-71
2021/06/19 02:10:20;;;;;;;19.97;18.37;;;;;;;;;;5119574;28;20515;-71
2021/06/19 02:12:48;;;;;;;21.97;19.77;;;;;;;;;;5118163;28;20535;-71
2021/06/19 02:15:16;;;;;;;20.43;18.83;;;;;;;;;;5119018;28;20474;-71
2021/06/19 02:17:47;;;;;;;20.40;18.53;;;;;;;;;;5118515;28;20518;-71
2021/06/19 02:20:16;;;;;;;20.33;18.53;;;;;;;;;;5119117;28;20442;-71
2021/06/19 02:22:44;;;;;;;21.50;19.43;;;;;;;;;;5118487;28;20484;-71
2021/06/19 02:25:12;;;;;;;21.70;19.80;;;;;;;;;;5118657;28;20987;-71
2021/06/19 02:27:47;;;;;;;22.90;20.60;;;;;;;;;;5118485;28;20466;-71
2021/06/19 02:30:15;;;;;;;23.53;21.33;;;;;;;;;;5119312;28;20450;-71
2021/06/19 02:32:43;;;;;;;21.47;19.57;;;;;;;;;;5118872;28;20866;-71
2021/06/19 02:35:13;;;;;;;21.93;20.00;;;;;;;;;;5119306;28;20450;-71
2021/06/19 02:37:41;;;;;;;23.33;20.87;;;;;;;;;;5119775;28;20474;-71
2021/06/19 02:40:09;;;;;;;23.23;21.20;;;;;;;;;;5118392;28;20455;-71
2021/06/19 02:42:37;;;;;;;22.63;20.43;;;;;;;;;;5119561;28;20500;-71
2021/06/19 02:45:10;;;;;;;21.67;19.77;;;;;;;;;;5118246;28;20783;-71
2021/06/19 02:47:41;;;;;;;24.17;22.10;;;;;;;;;;5119339;28;20490;-71
2021/06/19 02:50:10;;;;;;;24.10;22.00;;;;;;;;;;5118488;28;20523;-71
2021/06/19 02:52:42;;;;;;;24.53;22.43;;;;;;;;;;5117838;28;20734;-69
2021/06/19 02:55:10;;;;;;;24.67;22.57;;;;;;;;;;5118397;28;20485;-71
2021/06/19 02:57:39;;;;;;;23.77;21.60;;;;;;;;;;5116677;28;20455;-71
2021/06/19 03:00:07;;;;;;;23.13;21.13;;;;;;;;;;5118646;28;20534;-71
2021/06/19 03:02:35;;;;;;;23.87;21.87;;;;;;;;;;5119277;28;20462;-71
2021/06/19 03:05:03;;;;;;;24.00;22.10;;;;;;;;;;5119430;28;20552;-71
2021/06/19 03:07:31;;;;;;;24.27;21.97;;;;;;;;;;5119189;28;20450;-71
2021/06/19 03:10:00;;;;;;;22.37;20.43;;;;;;;;;;5119440;28;20463;-71
2021/06/19 03:12:28;;;;;;;22.90;21.00;;;;;;;;;;5118741;28;20450;-71
2021/06/19 03:14:57;;;;;;;24.23;22.20;;;;;;;;;;5119277;28;20455;-71
2021/06/19 03:17:25;;;;;;;24.97;22.77;;;;;;;;;;5119184;28;20447;-71
2021/06/19 03:19:53;;;;;;;29.13;26.50;;;;;;;;;;5118888;28;20541;-71
2021/06/19 03:22:21;;;;;;;27.70;25.30;;;;;;;;;;5118945;28;20463;-71
2021/06/19 03:24:48;;;;;;;30.97;27.97;;;;;;;;;;5118714;28;20482;-74
2021/06/19 03:27:18;;;;;;;30.73;27.63;;;;;;;;;;5119371;28;20790;-72
2021/06/19 03:29:46;;;;;;;31.13;27.93;;;;;;;;;;5119640;28;20451;-71
2021/06/19 03:32:14;;;;;;;31.97;28.97;;;;;;;;;;5118668;28;20453;-72
2021/06/19 03:34:42;;;;;;;34.07;30.43;;;;;;;;;;5118559;28;20523;-72
2021/06/19 03:37:10;;;;;;;34.33;31.13;;;;;;;;;;5118405;28;20829;-72
2021/06/19 03:39:38;;;;;;;36.33;32.53;;;;;;;;;;5118441;28;20458;-72
2021/06/19 03:42:06;;;;;;;37.40;33.67;;;;;;;;;;5117985;28;20459;-74
2021/06/19 03:44:35;;;;;;;38.33;34.43;;;;;;;;;;5118495;28;20483;-72
2021/06/19 03:47:03;;;;;;;41.53;37.30;;;;;;;;;;5118362;28;20846;-72
2021/06/19 03:49:31;;;;;;;43.23;38.77;;;;;;;;;;5118066;28;20780;-72
2021/06/19 03:51:59;;;;;;;38.67;35.13;;;;;;;;;;5118634;28;20850;-72
2021/06/19 03:54:27;;;;;;;33.57;30.53;;;;;;;;;;5118329;28;20602;-70
2021/06/19 03:56:54;;;;;;;33.13;29.87;;;;;;;;;;5116759;28;20499;-72
2021/06/19 03:59:26;;;;;;;31.40;28.40;;;;;;;;;;5117756;28;20472;-70
2021/06/19 04:01:55;;;;;;;28.50;26.00;;;;;;;;;;5117835;28;20454;-71
2021/06/19 04:04:23;;;;;;;27.17;24.77;;;;;;;;;;5117892;28;20580;-72
2021/06/19 04:07:00;;;;;;;28.00;25.47;;;;;;;;;;5117456;28;20459;-72
2021/06/19 04:09:28;;;;;;;26.60;24.30;;;;;;;;;;5118706;28;20447;-72
2021/06/19 04:11:55;;;;;;;25.30;23.20;;;;;;;;;;5118933;28;20462;-72
2021/06/19 04:14:23;;;;;;;26.80;24.00;;;;;;;;;;5117395;28;20430;-72
2021/06/19 04:16:51;;;;;;;26.30;23.70;;;;;;;;;;5118090;28;20458;-72
2021/06/19 04:19:21;;;;;;;26.00;23.60;;;;;;;;;;5117524;28;20450;-72
2021/06/19 04:21:49;;;;;;;26.00;23.70;;;;;;;;;;5117207;28;20463;-72
2021/06/19 04:24:17;;;;;;;29.80;27.20;;;;;;;;;;5117036;28;20451;-72
2021/06/19 04:26:44;;;;;;;27.37;25.00;;;;;;;;;;5117018;28;20450;-71
2021/06/19 04:29:12;;;;;;;29.87;27.10;;;;;;;;;;5116875;28;20466;-72
2021/06/19 04:31:40;;;;;;;28.50;25.57;;;;;;;;;;5116956;28;20476;-71
2021/06/19 04:34:09;;;;;;;26.80;24.40;;;;;;;;;;5116897;28;20779;-72
2021/06/19 04:36:41;;;;;;;27.37;25.00;;;;;;;;;;5118559;28;20512;-71
2021/06/19 04:39:09;;;;;;;26.63;24.03;;;;;;;;;;5117720;28;20462;-72
2021/06/19 04:41:46;;;;;;;28.17;25.27;;;;;;;;;;5118551;28;20462;-71
2021/06/19 04:44:40;;;;;;;26.35;24.00;;;;;;;;;;5117054;28;20550;-71
2021/06/19 04:47:08;;;;;;;27.57;25.27;;;;;;;;;;5116925;28;20490;-72
2021/06/19 04:49:36;;;;;;;26.30;24.00;;;;;;;;;;5116418;28;20570;-71
2021/06/19 04:52:09;;;;;;;27.47;24.57;;;;;;;;;;5116448;28;20505;-72
2021/06/19 04:54:38;;;;;;;27.77;25.27;;;;;;;;;;5116968;28;20459;-71
2021/06/19 04:57:06;;;;;;;27.83;25.47;;;;;;;;;;5116767;28;20458;-71
2021/06/19 04:59:35;;;;;;;27.33;24.93;;;;;;;;;;5116467;28;20455;-71
2021/06/19 05:02:02;;;;;;;29.17;26.43;;;;;;;;;;5117281;28;20455;-72
2021/06/19 05:04:30;;;;;;;29.60;26.90;;;;;;;;;;5117288;28;20457;-72
2021/06/19 05:06:58;;;;;;;28.67;26.20;;;;;;;;;;5117496;28;20471;-72
2021/06/19 05:09:29;;;;;;;28.30;25.50;;;;;;;;;;5116815;28;20447;-72
2021/06/19 05:11:57;;;;;;;28.00;25.40;;;;;;;;;;5116654;28;20803;-71
2021/06/19 05:14:25;;;;;;;26.00;23.70;;;;;;;;;;5117071;28;20447;-72
2021/06/19 05:16:54;;;;;;;28.90;26.20;;;;;;;;;;5117884;28;20568;-72
2021/06/19 05:19:24;;;;;;;28.10;25.27;;;;;;;;;;5116136;28;20954;-72
2021/06/19 05:21:51;;;;;;;25.97;23.57;;;;;;;;;;5116644;28;20470;-72
2021/06/19 05:24:19;;;;;;;27.03;24.73;;;;;;;;;;5117024;28;20780;-71
2021/06/19 05:26:49;;;;;;;24.63;22.43;;;;;;;;;;5116498;28;20843;-72
2021/06/19 05:29:16;;;;;;;23.73;21.73;;;;;;;;;;5116119;28;20438;-71
2021/06/19 05:31:45;;;;;;;24.17;21.83;;;;;;;;;;5115622;28;20528;-72
2021/06/19 05:34:12;;;;;;;27.40;23.00;;;;;;;;;;5116528;28;20454;-71
2021/06/19 05:36:40;;;;;;;25.87;23.27;;;;;;;;;;5116221;28;20465;-71
2021/06/19 05:39:11;;;;;;;25.83;23.27;;;;;;;;;;5116114;28;20450;-71
2021/06/19 05:41:39;;;;;;;22.73;20.57;;;;;;;;;;5116697;28;20537;-71
2021/06/19 05:44:09;;;;;;;23.60;21.60;;;;;;;;;;5116577;28;20568;-71
2021/06/19 05:46:37;;;;;;;22.17;19.73;;;;;;;;;;5116422;28;20573;-71
2021/06/19 05:49:06;;;;;;;21.83;19.53;;;;;;;;;;5115996;28;20451;-71
2021/06/19 05:51:34;;;;;;;22.67;20.53;;;;;;;;;;5115709;28;20463;-71
2021/06/19 05:54:02;;;;;;;20.47;18.60;;;;;;;;;;5116261;28;20458;-71
2021/06/19 05:56:30;;;;;;;20.00;18.00;;;;;;;;;;5115612;28;20781;-71
2021/06/19 05:58:58;;;;;;;23.87;20.50;;;;;;;;;;5116143;28;20745;-71
2021/06/19 06:01:30;;;;;;;20.50;18.60;;;;;;;;;;5115918;28;20450;-71
2021/06/19 06:03:58;;;;;;;19.47;17.77;;;;;;;;;;5116377;28;20463;-70
2021/06/19 06:06:26;;;;;;;19.33;17.20;;;;;;;;;;5116107;28;20479;-70
2021/06/19 06:08:54;;;;;;;20.30;17.97;;;;;;;;;;5115662;28;20462;-70
2021/06/19 06:11:22;;;;;;;19.53;17.83;;;;;;;;;;5098259;28;20905;-72
2021/06/19 06:13:52;;;;;;;15.40;13.87;;;;;;;;;;5115766;28;20467;-71
2021/06/19 06:16:22;;;;;;;16.07;14.20;;;;;;;;;;5111350;28;20581;-72
2021/06/19 06:18:51;;;;;;;13.93;12.63;;;;;;;;;;5115110;28;20512;-72
2021/06/19 06:21:21;;;;;;;14.00;12.57;;;;;;;;;;5117948;28;20470;-72
2021/06/19 06:23:49;;;;;;;11.20;10.00;;;;;;;;;;5098987;28;21100;-71
2021/06/19 06:26:16;;;;;;;12.97;11.03;;;;;;;;;;5115363;28;20483;-73
2021/06/19 06:28:44;;;;;;;15.33;12.13;;;;;;;;;;5119540;28;20446;-75
2021/06/19 06:31:12;;;;;;;13.80;11.60;;;;;;;;;;5119848;28;20458;-72
2021/06/19 06:33:40;;;;;;;12.60;11.17;;;;;;;;;;5119373;28;20446;-73
2021/06/19 06:36:10;;;;;;;12.10;10.77;;;;;;;;;;5118848;28;20454;-73
2021/06/19 06:38:37;;;;;;;18.57;10.37;;;;;;;;;;5118879;28;20454;-73
2021/06/19 06:41:08;;;;;;;12.27;10.93;;;;;;;;;;5118568;28;20458;-72
2021/06/19 06:43:37;;;;;;;12.03;10.80;;;;;;;;;;5118452;28;20870;-72
2021/06/19 06:46:05;;;;;;;15.30;11.13;;;;;;;;;;5118638;28;20478;-73
2021/06/19 06:48:33;;;;;;;15.23;11.43;;;;;;;;;;5118711;28;20451;-72
2021/06/19 06:51:04;;;;;;;13.97;11.33;;;;;;;;;;5118487;28;20468;-73
2021/06/19 06:53:33;;;;;;;11.53;9.70;;;;;;;;;;5118450;28;20728;-73
2021/06/19 06:56:01;;;;;;;10.17;9.10;;;;;;;;;;5115936;28;20496;-73
2021/06/19 06:58:33;;;;;;;13.93;8.47;;;;;;;;;;5114643;28;20454;-73
2021/06/19 07:01:01;;;;;;;12.10;8.63;;;;;;;;;;5118623;28;20451;-73
2021/06/19 07:03:29;;;;;;;10.10;6.70;;;;;;;;;;5118938;28;20455;-73
2021/06/19 07:05:59;;;;;;;14.20;8.83;;;;;;;;;;5115721;28;20517;-75
2021/06/19 07:08:37;;;;;;;8.97;8.00;;;;;;;;;;5118202;28;20451;-74
2021/06/19 07:11:06;;;;;;;10.70;7.57;;;;;;;;;;5112352;28;20455;-74
2021/06/19 07:13:40;;;;;;;16.07;7.47;;;;;;;;;;5097573;28;20456;-74
2021/06/19 07:16:12;;;;;;;8.17;7.30;;;;;;;;;;5097741;28;20443;-74
2021/06/19 07:18:41;;;;;;;13.10;7.60;;;;;;;;;;5102432;28;20540;-74
2021/06/19 07:21:15;;;;;;;7.83;6.90;;;;;;;;;;5094402;28;20439;-75
2021/06/19 07:23:48;;;;;;;9.50;6.53;;;;;;;;;;5112838;28;20538;-74
2021/06/19 07:26:20;;;;;;;9.33;7.17;;;;;;;;;;5110461;28;20744;-74
2021/06/19 07:28:48;;;;;;;8.73;7.37;;;;;;;;;;5115523;28;20467;-74
2021/06/19 07:31:16;;;;;;;7.60;6.13;;;;;;;;;;5113455;28;20506;-73
2021/06/19 07:33:46;;;;;;;11.20;6.60;;;;;;;;;;5113913;28;20474;-72
2021/06/19 07:36:15;;;;;;;8.97;5.53;;;;;;;;;;5112477;28;20913;-73
2021/06/19 07:38:45;;;;;;;8.13;5.40;;;;;;;;;;5115192;28;20467;-72
2021/06/19 07:41:17;;;;;;;6.83;4.80;;;;;;;;;;5111754;28;20538;-73
2021/06/19 07:43:46;;;;;;;10.33;4.90;;;;;;;;;;5114923;28;20539;-73
2021/06/19 07:46:16;;;;;;;7.27;5.00;;;;;;;;;;5114955;28;20532;-73
2021/06/19 07:48:44;;;;;;;5.73;4.63;;;;;;;;;;5114556;28;20451;-72
2021/06/19 07:51:16;;;;;;;5.37;4.43;;;;;;;;;;5115398;28;20469;-72
2021/06/19 07:53:47;;;;;;;5.63;4.70;;;;;;;;;;5115668;28;20494;-72
2021/06/19 07:56:18;;;;;;;4.87;4.33;;;;;;;;;;5114753;28;20455;-72
2021/06/19 07:58:47;;;;;;;4.70;3.80;;;;;;;;;;5112405;28;20478;-72
2021/06/19 08:01:18;;;;;;;8.10;4.80;;;;;;;;;;5112478;28;20471;-74
2021/06/19 08:03:52;;;;;;;7.27;4.30;;;;;;;;;;5099628;28;20470;-72
2021/06/19 08:06:23;;;;;;;7.63;4.13;;;;;;;;;;5113702;28;20486;-72
2021/06/19 08:08:54;;;;;;;5.40;4.90;;;;;;;;;;5115611;28;20474;-72
2021/06/19 08:11:23;;;;;;;5.30;4.60;;;;;;;;;;5115271;28;20554;-73
2021/06/19 08:13:53;;;;;;;5.63;3.57;;;;;;;;;;5112639;28;20464;-72
2021/06/19 08:16:23;;;;;;;10.07;3.83;;;;;;;;;;5096455;28;20451;-72
2021/06/19 08:18:51;;;;;;;7.73;2.70;;;;;;;;;;5114926;28;20911;-72
2021/06/19 08:21:25;;;;;;;5.33;2.60;;;;;;;;;;5118100;27;20464;-73
2021/06/19 08:23:55;;;;;;;3.67;2.70;;;;;;;;;;5097150;28;20451;-72
2021/06/19 08:26:26;;;;;;;4.90;3.37;;;;;;;;;;5115726;27;20471;-73
2021/06/19 08:29:01;;;;;;;5.17;2.40;;;;;;;;;;5115240;28;20487;-73
2021/06/19 08:31:29;;;;;;;7.00;2.80;;;;;;;;;;5115536;28;20534;-72
2021/06/19 08:33:57;;;;;;;4.20;3.10;;;;;;;;;;5115312;28;20556;-72
2021/06/19 08:36:28;;;;;;;4.00;2.60;;;;;;;;;;5115713;28;20478;-72
2021/06/19 08:38:56;;;;;;;4.83;2.90;;;;;;;;;;5115855;28;20549;-72
2021/06/19 08:41:23;;;;;;;9.03;3.27;;;;;;;;;;5115541;28;20546;-72
2021/06/19 08:43:52;;;;;;;6.10;3.10;;;;;;;;;;5114409;28;20459;-72
2021/06/19 08:46:22;;;;;;;5.07;3.33;;;;;;;;;;5114372;28;20531;-73
2021/06/19 08:48:51;;;;;;;3.90;2.77;;;;;;;;;;5114695;28;20447;-72
2021/06/19 08:51:20;;;;;;;4.63;3.10;;;;;;;;;;5116998;27;20911;-72
2021/06/19 08:53:50;;;;;;;3.10;2.10;;;;;;;;;;5115786;28;20918;-72
2021/06/19 08:56:18;;;;;;;4.23;2.77;;;;;;;;;;5115659;28;20466;-72
2021/06/19 08:58:50;;;;;;;3.73;2.87;;;;;;;;;;5115802;28;20559;-73
2021/06/19 09:01:19;;;;;;;4.67;2.60;;;;;;;;;;5115100;28;20451;-70
2021/06/19 09:03:51;;;;;;;3.87;2.60;;;;;;;;;;5113681;28;20464;-72
2021/06/19 09:06:28;;;;;;;5.13;3.00;;;;;;;;;;5112083;28;20479;-72
2021/06/19 09:09:16;;;;;;;3.30;2.50;;;;;;;;;;5114336;28;20446;-71
2021/06/19 09:11:45;;;;;;;4.13;2.30;;;;;;;;;;5101708;28;21014;-72
2021/06/19 09:14:16;;;;;;;6.67;2.73;;;;;;;;;;5104383;28;20444;-72
2021/06/19 09:16:47;;;;;;;4.10;2.50;;;;;;;;;;5101514;28;20522;-72
2021/06/19 09:19:30;;;;;;;5.20;2.73;;;;;;;;;;5110738;28;20451;-71
2021/06/19 09:22:10;;;;;;;5.40;2.60;;;;;;;;;;5101152;28;20511;-71
2021/06/19 09:24:49;;;;;;;2.63;1.93;;;;;;;;;;5114410;28;20455;-71
2021/06/19 09:27:33;;;;;;;4.20;2.03;;;;;;;;;;5109664;28;20539;-71
2021/06/19 09:30:19;;;;;;;3.93;2.30;;;;;;;;;;5108931;28;20452;-72
2021/06/19 09:32:52;;;;;;;6.13;2.47;;;;;;;;;;5093815;28;20500;-72
2021/06/19 09:35:24;;;;;;;3.33;1.53;;;;;;;;;;5094137;28;20455;-71
2021/06/19 09:37:54;;;;;;;3.70;2.27;;;;;;;;;;5094432;28;20455;-71
2021/06/19 09:40:22;;;;;;;4.17;2.00;;;;;;;;;;5106433;28;20866;-71
2021/06/19 09:42:51;;;;;;;5.23;2.03;;;;;;;;;;5112745;28;20455;-72
2021/06/19 09:45:22;;;;;;;4.47;1.93;;;;;;;;;;5109329;28;20489;-71
2021/06/19 09:47:51;;;;;;;4.27;3.07;;;;;;;;;;5114847;28;20543;-71
2021/06/19 09:50:24;;;;;;;2.43;1.53;;;;;;;;;;5114477;28;20515;-71
2021/06/19 09:52:53;;;;;;;6.00;1.90;;;;;;;;;;5113699;28;20465;-71
2021/06/19 09:55:24;;;;;;;1.87;1.17;;;;;;;;;;5115769;28;20898;-71
2021/06/19 09:57:53;;;;;;;2.20;1.43;;;;;;;;;;5099913;28;20453;-72
2021/06/19 10:00:24;;;;;;;2.10;1.60;;;;;;;;;;5114741;28;20454;-71
2021/06/19 10:03:08;;;;;;;2.87;1.50;;;;;;;;;;5115980;28;20439;-72
2021/06/19 10:05:39;;;;;;;2.27;1.50;;;;;;;;;;5109015;28;20803;-71
2021/06/19 10:08:08;;;;;;;2.93;1.77;;;;;;;;;;5118087;28;20479;-72
2021/06/19 10:10:38;;;;;;;2.20;1.43;;;;;;;;;;5118230;28;20806;-72
2021/06/19 10:13:06;;;;;;;3.63;2.30;;;;;;;;;;5112431;28;20471;-71
2021/06/19 10:15:35;;;;;;;2.60;1.70;;;;;;;;;;5118522;28;20771;-72
2021/06/19 10:18:03;;;;;;;3.00;1.70;;;;;;;;;;5115745;27;20517;-72
2021/06/19 10:20:32;;;;;;;3.60;2.07;;;;;;;;;;5119480;27;20447;-72
2021/06/19 10:23:02;;;;;;;2.40;1.60;;;;;;;;;;5105731;28;20451;-73
2021/06/19 10:25:32;;;;;;;3.00;1.80;;;;;;;;;;5116385;28;20443;-72
2021/06/19 10:28:02;;;;;;;3.37;2.00;;;;;;;;;;5111139;28;20467;-72
2021/06/19 10:30:30;;;;;;;2.70;1.60;;;;;;;;;;5113796;28;20543;-73
2021/06/19 10:33:00;;;;;;;6.53;2.60;;;;;;;;;;5106483;28;20447;-72
2021/06/19 10:35:52;;;;;;;3.10;2.10;;;;;;;;;;5097877;28;20463;-73
2021/06/19 10:38:22;;;;;;;3.20;2.10;;;;;;;;;;5099263;28;20497;-71
2021/06/19 10:40:53;;;;;;;4.60;2.10;;;;;;;;;;5104839;28;20455;-72
2021/06/19 10:43:22;;;;;;;3.07;2.30;;;;;;;;;;5115825;28;20451;-72
2021/06/19 10:45:51;;;;;;;3.17;1.80;;;;;;;;;;5116981;28;20484;-73
2021/06/19 10:48:20;;;;;;;4.20;2.07;;;;;;;;;;5116858;28;20478;-74
2021/06/19 10:50:50;;;;;;;3.77;1.80;;;;;;;;;;5115055;28;20550;-75
2021/06/19 10:53:19;;;;;;;5.00;1.90;;;;;;;;;;5102187;28;20463;-74
2021/06/19 10:55:58;;;;;;;3.40;2.13;;;;;;;;;;5097142;28;20532;-73
2021/06/19 10:58:28;;;;;;;3.53;2.27;;;;;;;;;;5099937;28;20455;-74
2021/06/19 11:01:00;;;;;;;2.53;1.60;;;;;;;;;;5097144;28;20550;-75
2021/06/19 11:03:45;;;;;;;4.50;2.10;;;;;;;;;;5101131;28;20591;-73
2021/06/19 11:06:24;;;;;;;3.60;2.47;;;;;;;;;;5103354;28;20447;-74
2021/06/19 11:09:17;;;;;;;3.67;2.10;;;;;;;;;;5116593;28;20458;-73
2021/06/19 11:11:50;;;;;;;3.20;1.90;;;;;;;;;;5117421;28;20479;-72
2021/06/19 11:14:55;;;;;;;3.43;2.00;;;;;;;;;;5116969;28;20454;-74
2021/06/19 11:17:43;;;;;;;4.00;2.20;;;;;;;;;;5116649;28;20538;-73
2021/06/19 11:20:30;;;;;;;3.90;2.00;;;;;;;;;;5118014;28;20518;-73
2021/06/19 11:22:59;;;;;;;4.83;1.90;;;;;;;;;;5115845;28;20565;-73
2021/06/19 11:25:39;;;;;;;4.60;2.63;;;;;;;;;;5117778;28;20886;-74
2021/06/19 11:28:09;;;;;;;2.67;2.07;;;;;;;;;;5117674;28;20609;-74
2021/06/19 11:30:43;;;;;;;3.60;2.17;;;;;;;;;;5119425;28;20530;-72
2021/06/19 11:33:28;;;;;;;3.60;2.10;;;;;;;;;;5113173;28;20789;-72
2021/06/19 11:36:12;;;;;;;5.10;2.00;;;;;;;;;;5117104;28;20456;-72
2021/06/19 11:38:45;;;;;;;2.00;1.40;;;;;;;;;;5111769;28;20875;-71
2021/06/19 11:41:13;;;;;;;16.53;12.90;;;;;;;;;;5096259;28;20863;-71
2021/06/19 11:43:46;;;;;;;4.00;1.67;;;;;;;;;;5098146;28;20444;-71
2021/06/19 11:46:22;;;;;;;6.60;3.57;;;;;;;;;;5095967;28;20439;-71
2021/06/19 11:49:01;;;;;;;16.53;12.63;;;;;;;;;;5106900;28;20483;-71
2021/06/19 11:51:44;;;;;;;5.73;1.63;;;;;;;;;;5117618;28;21023;-71
2021/06/19 11:54:16;;;;;;;4.07;1.80;;;;;;;;;;5114207;28;20589;-72
2021/06/19 11:56:46;;;;;;;4.50;1.87;;;;;;;;;;5116992;28;20446;-73
2021/06/19 11:59:18;;;;;;;4.37;2.03;;;;;;;;;;5116161;28;20501;-73
2021/06/19 12:01:47;;;;;;;4.10;1.77;;;;;;;;;;5116497;28;21138;-73
2021/06/19 12:04:19;;;;;;;3.43;2.20;;;;;;;;;;5116505;28;20726;-73
2021/06/19 12:06:50;;;;;;;3.00;1.40;;;;;;;;;;5116225;28;21027;-73
2021/06/19 12:09:18;;;;;;;6.70;2.07;;;;;;;;;;5115821;28;20451;-72
2021/06/19 12:11:47;;;;;;;2.70;1.70;;;;;;;;;;5117200;28;20528;-73
2021/06/19 12:14:22;;;;;;;2.70;1.67;;;;;;;;;;5115946;28;20447;-73
2021/06/19 12:16:53;;;;;;;3.10;1.77;;;;;;;;;;5115807;28;20541;-73
2021/06/19 12:19:22;;;;;;;2.67;1.77;;;;;;;;;;5116024;28;20773;-73
2021/06/19 12:21:53;;;;;;;3.30;1.80;;;;;;;;;;5113756;28;20829;-72
2021/06/19 12:24:23;;;;;;;2.90;1.70;;;;;;;;;;5101724;28;20525;-72
2021/06/19 12:27:08;;;;;;;3.53;1.53;;;;;;;;;;5103531;28;20724;-71
2021/06/19 12:29:40;;;;;;;3.70;1.60;;;;;;;;;;5104950;28;21162;-71
2021/06/19 12:32:25;;;;;;;2.53;1.60;;;;;;;;;;5117157;28;20446;-72
2021/06/19 12:34:55;;;;;;;5.60;1.97;;;;;;;;;;5116140;28;20464;-72
2021/06/19 12:37:24;;;;;;;3.60;1.80;;;;;;;;;;5115237;28;20455;-72
2021/06/19 12:39:53;;;;;;;3.03;1.97;;;;;;;;;;5116333;27;20907;-71
2021/06/19 12:42:40;;;;;;;2.77;1.77;;;;;;;;;;5116049;28;20447;-71
2021/06/19 12:45:14;;;;;;;3.50;2.00;;;;;;;;;;5116034;28;20816;-71
2021/06/19 12:47:44;;;;;;;2.97;1.30;;;;;;;;;;5102984;28;20559;-71
2021/06/19 12:50:12;;;;;;;3.83;2.40;;;;;;;;;;5095741;28;20752;-71
2021/06/19 12:52:56;;;;;;;2.27;1.53;;;;;;;;;;5096508;28;20448;-71
2021/06/19 12:55:24;;;;;;;2.50;1.60;;;;;;;;;;5095753;28;20456;-72
2021/06/19 12:58:04;;;;;;;3.83;1.60;;;;;;;;;;5104047;28;20439;-70
2021/06/19 13:00:43;;;;;;;2.83;1.37;;;;;;;;;;5094516;28;21078;-71
2021/06/19 13:03:16;;;;;;;3.13;1.43;;;;;;;;;;5105482;28;20443;-70
2021/06/19 13:05:51;;;;;;;3.63;1.80;;;;;;;;;;5112927;28;20459;-71
2021/06/19 13:08:20;;;;;;;2.93;1.60;;;;;;;;;;5114346;28;21143;-70
2021/06/19 13:10:50;;;;;;;3.10;2.00;;;;;;;;;;5113949;28;20492;-70
2021/06/19 13:13:18;;;;;;;2.30;1.80;;;;;;;;;;5114340;28;20878;-70
2021/06/19 13:16:01;;;;;;;3.60;2.07;;;;;;;;;;5114174;28;20450;-71
2021/06/19 13:18:29;;;;;;;3.40;2.73;;;;;;;;;;5114320;28;20503;-70
2021/06/19 13:21:08;;;;;;;3.83;2.00;;;;;;;;;;5114783;28;21000;-71
2021/06/19 13:23:35;;;;;;;4.10;2.03;;;;;;;;;;5115831;28;20454;-71
2021/06/19 13:26:08;;;;;;;3.73;2.00;;;;;;;;;;5113712;28;20456;-72
2021/06/19 13:28:58;;;;;;;3.80;1.40;;;;;;;;;;5114169;28;20485;-71
2021/06/19 13:31:38;;;;;;;2.13;1.30;;;;;;;;;;5099163;28;21081;-71
2021/06/19 13:34:07;;;;;;;3.30;1.23;;;;;;;;;;5119318;28;20479;-71
2021/06/19 13:36:41;;;;;;;1.90;1.30;;;;;;;;;;5118146;28;20454;-70
2021/06/19 13:39:11;;;;;;;2.77;1.10;;;;;;;;;;5116608;28;20802;-71
2021/06/19 13:41:41;;;;;;;2.73;1.63;;;;;;;;;;5116412;28;20818;-71
2021/06/19 13:44:09;;;;;;;3.57;1.30;;;;;;;;;;5104338;27;20454;-72
2021/06/19 13:46:39;;;;;;;2.60;1.47;;;;;;;;;;5115646;28;20515;-71
2021/06/19 13:49:08;;;;;;;3.37;1.93;;;;;;;;;;5118391;28;20508;-71
2021/06/19 13:51:36;;;;;;;2.77;1.63;;;;;;;;;;5117820;28;20447;-70
2021/06/19 13:54:05;;;;;;;3.77;1.57;;;;;;;;;;5119804;28;20451;-71
2021/06/19 13:56:35;;;;;;;4.23;1.37;;;;;;;;;;5120015;28;21032;-71
2021/06/19 13:59:08;;;;;;;4.47;2.27;;;;;;;;;;5119178;28;20451;-71
2021/06/19 14:01:37;;;;;;;3.87;1.67;;;;;;;;;;5112286;28;20459;-71
2021/06/19 14:04:08;;;;;;;2.30;1.30;;;;;;;;;;5104339;28;20737;-71
2021/06/19 14:06:37;;;;;;;2.90;1.50;;;;;;;;;;5098204;28;20452;-71
2021/06/19 14:09:05;;;;;;;3.53;1.30;;;;;;;;;;5099427;28;20499;-70
2021/06/19 14:11:35;;;;;;;3.23;1.50;;;;;;;;;;5103864;28;20473;-72
2021/06/19 14:14:04;;;;;;;3.00;1.90;;;;;;;;;;5111783;28;20467;-71
2021/06/19 14:16:32;;;;;;;2.40;1.47;;;;;;;;;;5119163;28;20470;-70
2021/06/19 14:19:03;;;;;;;3.43;1.73;;;;;;;;;;5111395;28;21026;-71
2021/06/19 14:21:36;;;;;;;4.30;1.53;;;;;;;;;;5103349;28;20772;-71
2021/06/19 14:24:06;;;;;;;2.07;1.37;;;;;;;;;;5097986;28;20458;-71
2021/06/19 14:26:36;;;;;;;4.50;2.00;;;;;;;;;;5098242;28;20456;-71
2021/06/19 14:29:10;;;;;;;3.63;1.93;;;;;;;;;;5098606;28;20490;-71
2021/06/19 14:31:39;;;;;;;3.03;1.60;;;;;;;;;;5098318;28;20475;-71
2021/06/19 14:34:07;;;;;;;2.50;1.00;;;;;;;;;;5099688;28;20447;-71
2021/06/19 14:36:37;;;;;;;4.43;2.00;;;;;;;;;;5118169;28;20467;-71
2021/06/19 14:39:04;;;;;;;4.87;1.60;;;;;;;;;;5115609;28;20516;-71
2021/06/19 14:41:38;;;;;;;4.10;2.40;;;;;;;;;;5111257;28;20459;-72
2021/06/19 14:44:13;;;;;;;2.77;1.43;;;;;;;;;;5099240;28;20459;-73
2021/06/19 14:46:44;;;;;;;3.53;1.40;;;;;;;;;;5116984;28;20455;-72
2021/06/19 14:49:12;;;;;;;3.40;2.23;;;;;;;;;;5115974;28;20494;-72
2021/06/19 14:51:49;;;;;;;2.47;1.40;;;;;;;;;;5105728;28;20547;-73